KBDL

Bradley International Airport

Windsor Locks, Connecticut, USA
METAR KBDL 170151Z 31008KT 10SM FEW049 M03/M09 A3016 RMK AO2 SLP215 T10331094
Observed Flight Rules
Dec-17 @ 01:51 UTC (35 minutes ago) Visual Flight Rules
Wind Visibility Clouds
310° at 8 knots 10 miles
  • Few at 4,900' AGL
Temperatures Readings
Current -3°C / 27°F
Dewpoint -9°C / 16°F
Humidity 64%
Altimeter 30.16" Hg
Pressure 1021.5 hPa
Elevation 60
METAR KBDL 170151Z 31008KT 10SM FEW049 M03/M09 A3016 RMK AO2 SLP215 T10331094
Observed Flight Rules
Dec-17 @ 01:51 UTC
(35 minutes ago)
VFR
Wind Visibility
310° at 8 knots 10 miles
Clouds
  • Few at 4,900' AGL
Temperature Dewpoint
-3°C / 27°F -9°C / 16°F
Humidity Altimeter Pressure
64% 30.16" Hg 1021.5 hPa